createdAt,value
2018-12-17T00:02:46.564Z,16.87
2018-12-17T00:07:51.119Z,15.97
2018-12-17T00:12:55.632Z,17.77
2018-12-17T00:18:00.148Z,15.27
2018-12-17T00:23:04.675Z,16.53
2018-12-17T00:28:09.216Z,18.63
2018-12-17T00:33:13.735Z,17.60
2018-12-17T00:38:18.254Z,18.03
2018-12-17T00:43:22.846Z,17.60
2018-12-17T00:48:27.367Z,16.67
2018-12-17T00:53:31.929Z,15.73
2018-12-17T00:58:36.455Z,17.83
2018-12-17T01:03:40.981Z,17.33
2018-12-17T01:08:45.507Z,17.90
2018-12-17T01:13:49.997Z,17.67
2018-12-17T01:18:54.518Z,17.63
2018-12-17T01:23:59.042Z,19.23
2018-12-17T01:29:03.569Z,18.90
2018-12-17T01:34:08.113Z,17.80
2018-12-17T01:39:12.615Z,18.03
2018-12-17T01:44:17.188Z,18.60
2018-12-17T01:49:21.730Z,18.93
2018-12-17T01:54:26.233Z,17.77
2018-12-17T01:59:30.837Z,19.37
2018-12-17T02:04:35.360Z,17.90
2018-12-17T02:09:39.874Z,17.37
2018-12-17T02:14:44.390Z,19.77
2018-12-17T02:19:48.924Z,16.90
2018-12-17T02:24:53.453Z,18.60
2018-12-17T02:29:58.022Z,16.17
2018-12-17T02:35:02.598Z,19.07
2018-12-17T02:40:08.055Z,17.13
2018-12-17T02:45:12.610Z,18.70
2018-12-17T02:50:17.171Z,17.43
2018-12-17T02:55:21.728Z,16.90
2018-12-17T03:00:26.280Z,18.40
2018-12-17T03:05:30.832Z,18.97
2018-12-17T03:10:35.397Z,17.13
2018-12-17T03:15:39.937Z,17.70
2018-12-17T03:20:44.448Z,18.60
2018-12-17T03:25:48.994Z,17.37
2018-12-17T03:30:53.518Z,18.07
2018-12-17T03:35:58.055Z,17.77
2018-12-17T03:41:02.595Z,18.13
2018-12-17T03:46:07.110Z,18.00
2018-12-17T03:51:11.661Z,19.53
2018-12-17T03:56:16.186Z,17.03
2018-12-17T04:01:20.714Z,18.70
2018-12-17T04:06:25.225Z,17.70
2018-12-17T04:11:29.828Z,17.73
2018-12-17T04:16:34.608Z,18.00
2018-12-17T04:21:39.395Z,17.47
2018-12-17T04:26:43.925Z,18.97
2018-12-17T04:31:48.484Z,17.90
2018-12-17T04:36:53.046Z,18.13
2018-12-17T04:41:57.659Z,19.43
2018-12-17T04:47:02.178Z,17.93
2018-12-17T04:52:06.718Z,17.23
2018-12-17T04:57:11.248Z,17.67
2018-12-17T05:02:15.765Z,17.13
2018-12-17T05:07:20.310Z,18.63
2018-12-17T05:12:24.849Z,16.10
2018-12-17T05:17:29.418Z,18.00
2018-12-17T05:22:33.918Z,16.40
2018-12-17T05:27:38.462Z,16.83
2018-12-17T05:32:43.011Z,18.70
2018-12-17T05:37:47.557Z,16.77
2018-12-17T05:42:52.074Z,16.90
2018-12-17T05:47:56.584Z,18.33
2018-12-17T05:53:01.097Z,17.63
2018-12-17T05:58:05.650Z,17.80
2018-12-17T06:03:10.146Z,17.33
2018-12-17T06:08:14.719Z,18.20
2018-12-17T06:13:19.261Z,19.87
2018-12-17T06:18:23.796Z,19.47
2018-12-17T06:23:28.305Z,18.53
2018-12-17T06:28:32.822Z,19.33
2018-12-17T06:33:37.365Z,18.37
2018-12-17T06:38:41.877Z,17.97
2018-12-17T06:43:46.470Z,18.27
2018-12-17T06:48:51.076Z,16.93
2018-12-17T06:53:55.585Z,19.53
2018-12-17T06:59:00.077Z,19.43
2018-12-17T07:04:04.589Z,18.60
2018-12-17T07:09:09.087Z,18.93
2018-12-17T07:14:13.629Z,17.83
2018-12-17T07:19:18.129Z,19.30
2018-12-17T07:24:22.620Z,18.53
2018-12-17T07:29:27.112Z,19.20
2018-12-17T07:34:31.683Z,19.23
2018-12-17T07:39:36.210Z,18.77
2018-12-17T07:44:40.918Z,20.00
2018-12-17T07:49:45.493Z,18.07
2018-12-17T07:54:50.005Z,16.90
2018-12-17T07:59:56.925Z,18.50
2018-12-17T08:04:59.084Z,19.20
2018-12-17T08:10:03.611Z,18.57
2018-12-17T08:15:08.133Z,18.30
2018-12-17T08:20:12.765Z,19.43
2018-12-17T08:25:17.266Z,19.73
2018-12-17T08:30:21.870Z,19.23
2018-12-17T08:35:26.414Z,19.77
2018-12-17T08:40:30.913Z,19.63
2018-12-17T08:45:35.513Z,18.33
2018-12-17T08:50:40.034Z,19.43
2018-12-17T08:55:44.570Z,20.90
2018-12-17T09:00:49.057Z,18.53
2018-12-17T09:05:53.557Z,19.57
2018-12-17T09:10:58.071Z,20.43
2018-12-17T09:16:02.577Z,18.33
2018-12-17T09:21:07.078Z,20.83
2018-12-17T09:26:11.582Z,18.93
2018-12-17T09:31:16.081Z,20.47
2018-12-17T09:36:20.598Z,20.00
2018-12-17T09:41:25.105Z,19.27
2018-12-17T09:46:29.614Z,19.97
2018-12-17T09:51:34.118Z,19.63
2018-12-17T09:56:38.622Z,19.67
2018-12-17T10:01:43.118Z,20.73
2018-12-17T10:06:47.775Z,19.77
2018-12-17T10:11:52.271Z,19.40
2018-12-17T10:16:56.766Z,21.27
2018-12-17T10:22:01.273Z,21.47
2018-12-17T10:27:05.787Z,21.00
2018-12-17T10:32:10.279Z,20.13
2018-12-17T10:37:14.834Z,19.63
2018-12-17T10:42:19.356Z,20.20
2018-12-17T10:47:23.847Z,20.73
2018-12-17T10:52:28.342Z,19.87
2018-12-17T10:57:32.837Z,21.27
2018-12-17T11:02:37.370Z,20.90
2018-12-17T11:07:41.862Z,20.57
2018-12-17T11:12:46.376Z,20.67
2018-12-17T11:17:50.882Z,22.50
2018-12-17T11:22:55.377Z,21.00
2018-12-17T11:28:00.145Z,20.63
2018-12-17T11:33:04.761Z,21.33
2018-12-17T11:38:09.286Z,20.90
2018-12-17T11:43:13.797Z,20.23
2018-12-17T11:48:18.363Z,22.13
2018-12-17T11:53:22.894Z,20.80
2018-12-17T11:58:27.399Z,21.80
2018-12-17T12:03:32.060Z,22.73
2018-12-17T12:08:36.603Z,22.03
2018-12-17T12:13:41.146Z,23.07
2018-12-17T12:18:45.672Z,21.80
2018-12-17T12:23:50.214Z,21.80
2018-12-17T12:28:54.784Z,23.33
2018-12-17T12:33:59.314Z,22.10
2018-12-17T12:39:03.858Z,21.43
2018-12-17T12:44:08.955Z,22.63
2018-12-17T12:49:13.041Z,21.57
2018-12-17T12:54:17.845Z,22.33
2018-12-17T12:59:22.397Z,22.10
2018-12-17T13:04:28.032Z,20.90
2018-12-17T13:09:32.587Z,22.83
2018-12-17T13:14:38.249Z,20.27
2018-12-17T13:19:42.915Z,22.53
2018-12-17T13:24:47.454Z,22.10
2018-12-17T13:29:52.066Z,21.23
2018-12-17T13:34:56.590Z,20.87
2018-12-17T13:40:01.137Z,21.83
2018-12-17T13:45:06.149Z,20.77
2018-12-17T13:50:16.022Z,20.60
2018-12-17T13:55:20.605Z,21.97
2018-12-17T14:00:25.149Z,20.97
2018-12-17T14:05:29.697Z,22.23
2018-12-17T14:10:39.509Z,21.37
2018-12-17T14:15:49.113Z,21.13
2018-12-17T14:20:59.086Z,21.13
2018-12-17T14:26:03.654Z,22.27
2018-12-17T14:31:08.166Z,23.03
2018-12-17T14:36:12.793Z,21.90
2018-12-17T14:41:17.331Z,21.80
2018-12-17T14:46:21.883Z,20.87
2018-12-17T14:51:26.470Z,21.87
2018-12-17T14:56:31.142Z,22.73
2018-12-17T15:01:36.084Z,21.57
2018-12-17T15:06:40.338Z,20.50
2018-12-17T15:11:44.885Z,21.17
2018-12-17T15:16:49.394Z,21.70
2018-12-17T15:21:54.241Z,21.87
2018-12-17T15:26:58.784Z,21.07
2018-12-17T15:32:03.323Z,21.53
2018-12-17T15:37:07.852Z,23.33
2018-12-17T15:42:12.409Z,21.07
2018-12-17T15:47:16.914Z,22.93
2018-12-17T15:52:21.454Z,23.03
2018-12-17T15:57:25.975Z,22.97
2018-12-17T16:02:30.501Z,22.33
2018-12-17T16:07:35.108Z,23.73
2018-12-17T16:12:39.646Z,24.07
2018-12-17T16:17:44.194Z,22.53
2018-12-17T16:22:48.708Z,22.50
2018-12-17T16:27:53.206Z,21.73
2018-12-17T16:32:57.785Z,22.37
2018-12-17T16:38:02.297Z,23.67
2018-12-17T16:43:06.858Z,22.10
2018-12-17T16:48:11.433Z,21.53
2018-12-17T16:53:15.940Z,22.10
2018-12-17T16:58:20.513Z,24.53
2018-12-17T17:03:25.110Z,22.33
2018-12-17T17:08:29.599Z,22.40
2018-12-17T17:13:34.191Z,24.30
2018-12-17T17:18:38.777Z,22.03
2018-12-17T17:23:43.415Z,22.10
2018-12-17T17:28:48.071Z,22.27
2018-12-17T17:33:52.743Z,23.23
2018-12-17T17:38:57.229Z,21.43
2018-12-17T17:44:01.879Z,24.93
2018-12-17T17:49:06.502Z,21.90
2018-12-17T17:54:11.133Z,23.93
2018-12-17T17:59:15.657Z,23.90
2018-12-17T18:04:20.227Z,23.20
2018-12-17T18:09:24.761Z,22.60
2018-12-17T18:14:29.302Z,23.33
2018-12-17T18:19:33.954Z,20.80
2018-12-17T18:24:38.530Z,21.60
2018-12-17T18:29:43.117Z,21.27
2018-12-17T18:34:47.637Z,21.50
2018-12-17T18:39:52.189Z,24.43
2018-12-17T18:44:56.705Z,23.30
2018-12-17T18:50:01.233Z,23.17
2018-12-17T18:55:05.863Z,22.80
2018-12-17T19:00:11.206Z,23.43
2018-12-17T19:05:15.819Z,23.50
2018-12-17T19:10:20.360Z,22.27
2018-12-17T19:15:24.990Z,21.83
2018-12-17T19:20:29.615Z,21.83
2018-12-17T19:25:34.393Z,22.90
2018-12-17T19:30:39.486Z,23.33
2018-12-17T19:35:44.119Z,23.10
2018-12-17T19:40:48.661Z,21.83
2018-12-17T19:45:53.236Z,22.70
2018-12-17T19:50:57.781Z,22.40
2018-12-17T19:56:02.465Z,23.33
2018-12-17T20:01:07.020Z,23.37
2018-12-17T20:06:11.553Z,20.83
2018-12-17T20:11:16.078Z,21.73
2018-12-17T20:16:20.603Z,20.30
2018-12-17T20:21:25.274Z,21.03
2018-12-17T20:26:29.981Z,19.83
2018-12-17T20:31:34.604Z,20.57
2018-12-17T20:36:39.141Z,19.17
2018-12-17T20:41:43.854Z,19.33
2018-12-17T20:46:48.420Z,20.03
2018-12-17T20:51:53.109Z,20.27
2018-12-17T20:56:57.666Z,20.73
2018-12-17T21:02:02.191Z,20.57
2018-12-17T21:07:06.797Z,20.20
2018-12-17T21:12:11.787Z,20.70
2018-12-17T21:17:16.401Z,20.10
2018-12-17T21:22:21.005Z,20.10
2018-12-17T21:27:25.558Z,21.10
2018-12-17T21:32:30.104Z,20.90
2018-12-17T21:37:34.667Z,20.60
2018-12-17T21:42:39.281Z,18.87
2018-12-17T21:47:43.896Z,18.40
2018-12-17T21:52:48.408Z,19.03
2018-12-17T21:57:52.914Z,20.53
2018-12-17T22:02:57.481Z,19.93
2018-12-17T22:08:02.017Z,19.20
2018-12-17T22:13:06.505Z,18.37
2018-12-17T22:18:11.107Z,19.80
2018-12-17T22:23:15.669Z,19.60
2018-12-17T22:28:20.178Z,18.90
2018-12-17T22:33:24.669Z,19.20
2018-12-17T22:38:29.245Z,19.07
2018-12-17T22:43:33.752Z,18.90
2018-12-17T22:48:38.306Z,20.27
2018-12-17T22:53:42.805Z,19.57
2018-12-17T22:58:47.325Z,19.20
2018-12-17T23:03:51.851Z,17.67
2018-12-17T23:09:02.906Z,19.13
2018-12-17T23:14:24.590Z,18.73
2018-12-17T23:19:27.534Z,19.10
2018-12-17T23:24:32.149Z,20.13
2018-12-17T23:29:36.694Z,18.63
2018-12-17T23:34:41.321Z,20.87
2018-12-17T23:39:45.832Z,19.27
2018-12-17T23:44:50.347Z,18.50
2018-12-17T23:49:54.866Z,18.67
2018-12-17T23:54:59.392Z,18.70
